• Join FlightAware (Why Join?)
  • Login
  • US Flag 
12:10PM EDT


 

Airport Tracker/Info


-or-


 

Live Flight TrackerFlight Track Log ✈ N287MC ✈ 27-Sep-2013 ✈ KMEM - KSGR

Flight Track Log - Related Links

Times and Time Zones

All times are in EDT time to prevent confusion due to time zone crossing. See the N287MC flight status page for this flight to view local times or setup timezone preferences in your user account.

Time Position Orientation Groundspeed Altitude Reporting Facility
EDT Latitude Longitude Course Direction KTS MPH feet Rate Location/Type
04:48PM 35.0333 -89.9833 192° South 169 194 900  Level KMEM
04:50PM 34.9667 -90.0000 192° South 249 287 3,900 2,640 Climbing KMEM
04:51PM 34.9500 -90.1000 259° West 279 321 7,000 1,500 Climbing KMEM
04:52PM 34.9500 -90.1833 270° West 270 311 7,000 840 Level KMEM
04:53PM 34.9333 -90.2667 256° West 267 307 8,600 2,100 Climbing KMEM
04:54PM 34.9261 -90.3950 266° West 305 351 12,100 2,400 Climbing Memphis Center
04:55PM 34.9175 -90.5064 265° West 305 351 14,400 2,220 Climbing Memphis Center
04:56PM 34.9092 -90.6103 264° West 310 357 16,600 1,980 Climbing Memphis Center
04:57PM 34.8756 -90.7064 247° West 305 351 18,400 1,740 Climbing Memphis Center
04:58PM 34.8106 -90.7872 226° Southwest 322 371 20,100 1,740 Climbing Memphis Center
04:59PM 34.7433 -90.8703 225° Southwest 338 389 21,900 1,740 Climbing Memphis Center
05:00PM 34.6764 -90.9556 226° Southwest 350 403 23,600 1,680 Climbing Memphis Center
05:01PM 34.6092 -91.0461 228° Southwest 350 403 25,300 1,560 Climbing Memphis Center
05:02PM 34.5417 -91.1336 227° Southwest 355 409 26,800 1,260 Climbing Memphis Center
05:03PM 34.4681 -91.2261 226° Southwest 375 432 27,900 1,080 Climbing Memphis Center
05:04PM 34.3967 -91.3161 226° Southwest 375 432 29,000 1,020 Climbing Memphis Center
05:05PM 34.3228 -91.4133 227° Southwest 387 445 30,000 900 Climbing Memphis Center
05:06PM 34.2531 -91.5006 226° Southwest 399 459 30,800 840 Climbing Memphis Center
05:07PM 34.1769 -91.6000 227° Southwest 399 459 31,700 900 Climbing Memphis Center
05:08PM 34.0986 -91.7042 228° Southwest 409 471 32,700 1,080 Climbing Memphis Center
05:09PM 34.0119 -91.8106 226° Southwest 409 471 33,900 1,140 Climbing Memphis Center
05:10PM 33.9294 -91.9094 225° Southwest 409 471 35,000 900 Climbing Memphis Center
05:12PM 33.7736 -91.9714 198° South 411 473 36,300 840 Climbing Fort Worth Center
05:13PM 33.6608 -92.0133 197° South 416 479 37,200 900 Climbing Fort Worth Center
05:14PM 33.5481 -92.0603 199° South 427 491 38,100 900 Climbing Fort Worth Center
05:15PM 33.4392 -92.1042 199° South 427 491 39,000 840 Climbing Fort Worth Center
05:16PM 33.3283 -92.1481 198° South 422 486 39,800 480 Climbing Fort Worth Center
05:17PM 33.2156 -92.1919 198° South 422 486 40,000 60 Climbing Fort Worth Center
05:18PM 33.0964 -92.2386 198° South 433 498 40,000  Level Fort Worth Center
05:19PM 32.9772 -92.2828 197° South 449 517 40,000  Level Fort Worth Center
05:20PM 32.8519 -92.3344 199° South 460 529 40,000  Level Fort Worth Center
05:21PM 32.6039 -92.4303 198° South 482 555 40,000  Level Houston Center
05:23PM 32.4767 -92.4808 199° South 484 557 40,000  Level Houston Center
05:24PM 32.3239 -92.5408 198° South 485 558 40,000  Level Houston Center
05:25PM 32.1950 -92.5900 198° South 489 563 40,000  Level Houston Center
05:26PM 32.0669 -92.6411 199° South 487 560 40,000  Level Houston Center
05:27PM 31.9464 -92.7075 205° Southwest 486 559 40,000  Level Houston Center
05:28PM 31.8592 -92.8214 228° Southwest 474 545 40,000  Level Houston Center
05:29PM 31.7703 -92.9336 227° Southwest 472 543 40,000  Level Houston Center
05:30PM 31.6631 -93.0667 227° Southwest 470 541 40,000  Level Houston Center
05:31PM 31.5750 -93.1797 228° Southwest 469 540 40,000  Level Houston Center
05:32PM 31.4875 -93.2928 228° Southwest 469 540 40,000 -120 Level Houston Center
05:33PM 31.3997 -93.4053 228° Southwest 469 540 39,800 -1,260 Descending Houston Center
05:34PM 31.3272 -93.5264 235° Southwest 458 527 37,500 -2,400 Descending Houston Center
05:35PM 31.2303 -93.6608 230° Southwest 453 521 34,900 -2,340 Descending Houston Center
05:36PM 31.1442 -93.7628 225° Southwest 446 513 32,700 -2,040 Descending Houston Center
05:37PM 31.0572 -93.8650 225° Southwest 445 512 30,800 -1,980 Descending Houston Center
05:38PM 30.9714 -93.9653 225° Southwest 443 510 28,700 -1,980 Descending Houston Center
05:39PM 30.8858 -94.0661 225° Southwest 442 509 26,800 -2,100 Descending Houston Center
05:40PM 30.7847 -94.1819 225° Southwest 433 498 24,400 -1,380 Descending Houston Center
05:41PM 30.7067 -94.2750 226° Southwest 411 473 24,000 -720 Descending Houston Center
05:42PM 30.6300 -94.3619 224° Southwest 392 451 23,000 -1,620 Descending Houston Center
05:43PM 30.5558 -94.4492 225° Southwest 382 440 20,700 -2,400 Descending Houston Center
05:43PM 30.5442 -94.4622 224° Southwest 379 436 20,500 -2,160 Descending Houston Center
05:44PM 30.4800 -94.5375 225° Southwest 363 418 18,500 -2,100 Descending Houston Center
05:45PM 30.4583 -94.5728 235° Southwest 350 403 17,700 -2,160 Descending Houston Center
05:45PM 30.4242 -94.6308 236° Southwest 352 405 16,300 -2,280 Descending Houston Center
05:46PM 30.3964 -94.6706 231° Southwest 348 400 15,400 -1,860 Descending Houston Center
05:46PM 30.3667 -94.7197 235° Southwest 348 400 14,400 -1,920 Descending Houston Center
05:47PM 30.3394 -94.7578 230° Southwest 342 394 13,500 -1,380 Descending Houston Center
05:47PM 30.3092 -94.8064 234° Southwest 343 395 13,000 -420 Descending Houston Center
05:48PM 30.2811 -94.8500 233° Southwest 339 390 13,100  Climbing Houston Center
05:48PM 30.2414 -94.9108 233° Southwest 339 390 13,000 -360 Descending Houston Center
05:49PM 30.2281 -94.9317 233° Southwest 341 392 12,800 -1,380 Descending Houston Center
05:49PM 30.1856 -94.9981 233° Southwest 340 391 11,600 -1,560 Descending Houston Center
05:50PM 30.1728 -95.0158 230° Southwest 336 387 11,200 -600 Descending Houston Center
05:50PM 30.1242 -95.0767 227° Southwest 335 386 11,000 -120 Descending Houston Center
05:51PM 30.0917 -95.0911 201° Southwest 334 384 11,100  Climbing Houston Center
05:52PM 30.0386 -95.1131 200° South 328 377 11,000  Descending Houston Center
05:52PM 30.0047 -95.1283 201° Southwest 337 388 11,100  Climbing Houston Center
05:53PM 29.9506 -95.1506 200° South 337 388 11,000 -120 Descending Houston Center
05:53PM 29.9219 -95.1628 200° South 342 394 11,000 -240 Level Houston Center
05:54PM 29.8619 -95.1886 200° South 340 391 10,800 -480 Descending Houston Center
05:54PM 29.8269 -95.2033 200° South 293 337 10,500 -1,140 Descending Houston Center
05:55PM 29.7622 -95.2303 200° South 292 336 9,500 -1,020 Descending Houston Center
05:56PM 29.6944 -95.2311 181° South 280 322 8,700 -1,020 Descending Houston Center
05:56PM 29.6717 -95.2269 171° South 279 321 8,400 -720 Descending Houston Center
05:57PM 29.6192 -95.2169 171° South 281 323 8,000 -420 Descending Houston Center
05:57PM 29.5947 -95.2122 170° South 278 320 8,000 -300 Level Houston Center
05:58PM 29.5289 -95.2111 179° South 280 322 7,700 -600 Descending Houston Center
05:58PM 29.5128 -95.2128 185° South 277 319 7,400 -1,200 Descending Houston Center
05:59PM 29.4500 -95.2611 214° Southwest 273 314 6,300 -1,080 Descending Houston Center
06:00PM 29.4344 -95.3211 253° West 277 319 5,400 -1,080 Descending Houston Center
06:00PM 29.4347 -95.3444 271° West 277 319 5,200 -900 Descending Houston Center
06:01PM 29.4378 -95.4108 273° West 280 322 4,500 -1,020 Descending Houston Center
06:01PM 29.4406 -95.4303 279° West 243 280 4,200 -1,260 Descending Houston Center
06:02PM 29.4533 -95.4819 286° West 252 290 3,200 -1,200 Descending Houston Center
06:02PM 29.4617 -95.5019 296° West 230 265 3,000 -240 Descending Houston Center
06:03PM 29.4792 -95.5475 294° West 233 268 3,000 60 Level Houston Center
06:03PM 29.4922 -95.5608 318° Northwest 224 258 3,100  Climbing Houston Center
06:04PM 29.5492 -95.5772 346° North 236 272 3,000 -120 Descending Houston Center
06:04PM 29.5567 -95.5772 360° North 232 267 3,000 -300 Level Houston Center
06:05PM 29.6139 -95.5764 North 232 267 2,700 -420 Descending Houston Center
06:05PM 29.6217 -95.5767 358° North 230 265 2,600 -660 Descending Houston Center
06:06PM 29.6828 -95.5792 358° North 207 238 2,000 -360 Descending Houston Center
06:07PM 29.7219 -95.6178 319° Northwest 203 234 2,000  Level Houston Center
06:07PM 29.7225 -95.6128 83° East 214 246 2,000 -600 Level Houston Center
06:08PM 29.7008 -95.6636 244° Southwest 154 177 1,400 -540 Descending Houston Center
06:08PM 29.7033 -95.6631 11° North 190 219 1,500 -480 Climbing Houston Center
06:09PM 29.6675 -95.6614 178° South 150 173 900 -660 Descending Houston Center
06:09PM 29.6608 -95.6611 178° South 124 143 800 -420 Descending Houston Center
06:10PM 29.6331 -95.6572 173° South 118 136 500 -360 Descending Houston Center
06:10PM 29.6294 -95.6583 195° South 137 158 500  Level Houston Center